Time;durP1;ratioP1;P1;durP2;ratioP2;P2;SDS_P1;SDS_P2;PMS_P1;PMS_P2;Temp;Humidity;BMP_temperature;BMP_pressure;BME280_temperature;BME280_humidity;BME280_pressure;Samples;Min_cycle;Max_cycle;Signal;HPM_P1;HPM_P2
2022/12/09 00:01:56;;;;;;;74.38;25.95;;;;;;;3.79;100.00;100638.16;5035957;23;20074;-88
2022/12/09 00:04:21;;;;;;;73.80;26.90;;;;;;;3.77;100.00;100645.97;5018901;28;20040;-89
2022/12/09 00:06:46;;;;;;;71.80;26.92;;;;;;;3.82;100.00;100648.56;5020635;28;20030;-89
2022/12/09 00:09:14;;;;;;;69.97;27.92;;;;;;;3.91;100.00;100650.47;5021690;28;20034;-88
2022/12/09 00:11:39;;;;;;;67.47;25.60;;;;;;;3.84;100.00;100651.81;5031817;28;20025;-89
2022/12/09 00:14:05;;;;;;;66.97;27.67;;;;;;;3.81;100.00;100651.66;5009477;28;20033;-88
2022/12/09 00:16:30;;;;;;;69.15;27.42;;;;;;;3.86;100.00;100649.50;5008087;28;20095;-89
2022/12/09 00:18:56;;;;;;;68.30;26.52;;;;;;;3.85;100.00;100647.88;5011285;28;20041;-88
2022/12/09 00:21:24;;;;;;;69.95;26.30;;;;;;;3.84;100.00;100645.47;5010405;28;20081;-90
2022/12/09 00:23:52;;;;;;;72.30;26.15;;;;;;;3.86;100.00;100649.50;5015565;28;20025;-89
2022/12/09 00:26:19;;;;;;;69.22;24.65;;;;;;;3.87;100.00;100645.59;5014040;28;20065;-89
2022/12/09 00:28:45;;;;;;;67.35;25.00;;;;;;;3.86;100.00;100649.50;5015904;28;20022;-89
2022/12/09 00:31:19;;;;;;;70.45;25.95;;;;;;;3.86;100.00;100646.75;5008896;28;20064;-90
2022/12/09 00:33:46;;;;;;;66.93;23.45;;;;;;;3.85;100.00;100641.53;5026094;28;20392;-89
2022/12/09 00:36:14;;;;;;;69.60;26.27;;;;;;;3.87;100.00;100647.56;5009938;28;20099;-89
2022/12/09 00:38:40;;;;;;;70.82;26.45;;;;;;;3.85;100.00;100642.34;5005161;28;20026;-90
2022/12/09 00:41:06;;;;;;;59.28;22.20;;;;;;;3.81;100.00;100641.41;5005723;28;20041;-90
2022/12/09 00:43:32;;;;;;;66.28;24.25;;;;;;;3.83;100.00;100639.09;5006885;28;20022;-90
2022/12/09 00:45:58;;;;;;;63.42;21.60;;;;;;;3.84;100.00;100643.50;5007155;28;20029;-88
2022/12/09 00:48:24;;;;;;;68.45;27.70;;;;;;;3.84;100.00;100642.69;5004648;28;20034;-89
2022/12/09 00:50:49;;;;;;;63.20;22.73;;;;;;;3.83;100.00;100639.09;5012148;28;20026;-89
2022/12/09 00:53:14;;;;;;;64.47;24.48;;;;;;;3.85;100.00;100647.06;5005192;28;20028;-89
2022/12/09 00:55:40;;;;;;;62.55;21.15;;;;;;;3.83;100.00;100643.84;5006859;28;20121;-89
2022/12/09 00:58:06;;;;;;;62.50;22.23;;;;;;;3.80;100.00;100633.44;5003513;28;20030;-90
2022/12/09 01:00:31;;;;;;;58.85;21.27;;;;;;;3.81;100.00;100635.84;5004211;28;20068;-91
2022/12/09 01:02:57;;;;;;;63.38;24.27;;;;;;;3.78;100.00;100636.53;5009838;28;20045;-90
2022/12/09 01:05:23;;;;;;;57.20;22.50;;;;;;;3.79;100.00;100638.16;5006509;28;20034;-89
2022/12/09 01:07:48;;;;;;;60.67;22.00;;;;;;;3.76;100.00;100636.06;5020767;28;20096;-89
2022/12/09 01:10:14;;;;;;;55.33;22.35;;;;;;;3.74;100.00;100635.59;5007363;28;20026;-89
2022/12/09 01:12:39;;;;;;;61.60;21.90;;;;;;;3.73;100.00;100638.69;5011713;28;20060;-90
2022/12/09 01:15:06;;;;;;;58.85;22.23;;;;;;;3.73;100.00;100645.06;5013714;28;20041;-89
2022/12/09 01:17:32;;;;;;;64.75;22.63;;;;;;;3.71;100.00;100641.81;5012357;28;20092;-88
2022/12/09 01:19:57;;;;;;;58.03;22.55;;;;;;;3.71;100.00;100652.06;5012553;28;20021;-89
2022/12/09 01:22:23;;;;;;;61.22;22.08;;;;;;;3.71;100.00;100647.38;5014262;28;20053;-89
2022/12/09 01:24:48;;;;;;;55.85;24.15;;;;;;;3.71;100.00;100646.53;5015485;28;20026;-88
2022/12/09 01:27:13;;;;;;;64.32;22.40;;;;;;;3.71;100.00;100657.59;5011001;28;20042;-89
2022/12/09 01:29:39;;;;;;;57.40;21.83;;;;;;;3.64;100.00;100649.84;5027781;28;20112;-89
2022/12/09 01:32:04;;;;;;;57.42;21.05;;;;;;;3.69;100.00;100660.72;5010024;28;20032;-88
2022/12/09 01:34:30;;;;;;;67.60;23.95;;;;;;;3.68;100.00;100656.31;5007182;28;20064;-88
2022/12/09 01:36:55;;;;;;;65.93;23.38;;;;;;;3.62;100.00;100665.97;5007421;28;20465;-88
2022/12/09 01:39:20;;;;;;;68.70;23.70;;;;;;;3.65;100.00;100662.53;5010269;28;20022;-90
2022/12/09 01:41:48;;;;;;;59.63;24.30;;;;;;;3.69;100.00;100659.91;5010721;28;20508;-89
2022/12/09 01:44:25;;;;;;;74.93;24.52;;;;;;;3.69;100.00;100660.72;5008855;28;20038;-89
2022/12/09 01:46:58;;;;;;;66.50;25.30;;;;;;;3.65;100.00;100665.31;5007660;28;20076;-89
2022/12/09 01:49:52;;;;;;;65.45;25.75;;;;;;;3.64;100.00;100672.78;5024259;28;20038;-89
2022/12/09 01:52:22;;;;;;;69.63;24.65;;;;;;;3.71;100.00;100669.50;5002777;28;20065;-88
2022/12/09 01:54:50;;;;;;;63.42;23.98;;;;;;;3.73;100.00;100667.22;5022382;28;20026;-89
2022/12/09 01:57:16;;;;;;;65.97;24.90;;;;;;;3.67;100.00;100669.38;5009022;28;20448;-88
2022/12/09 01:59:43;;;;;;;71.80;26.77;;;;;;;3.56;100.00;100656.25;5023783;28;20029;-92
2022/12/09 02:02:13;;;;;;;76.88;25.42;;;;;;;3.62;100.00;100657.66;5007222;28;20049;-90
2022/12/09 02:04:41;;;;;;;72.97;25.80;;;;;;;3.71;100.00;100660.38;5009933;28;20029;-89
2022/12/09 02:07:09;;;;;;;105.82;31.92;;;;;;;3.71;100.00;100663.13;5008360;28;20033;-88
2022/12/09 02:09:35;;;;;;;120.25;35.88;;;;;;;3.65;100.00;100654.25;5005122;28;20029;-89
2022/12/09 02:12:45;;;;;;;118.53;34.50;;;;;;;3.63;100.00;100651.81;5006923;28;20041;-89
2022/12/09 02:15:21;;;;;;;99.85;30.23;;;;;;;3.63;100.00;100659.31;5010930;28;20052;-92
2022/12/09 02:18:02;;;;;;;92.88;29.52;;;;;;;3.67;100.00;100657.50;5022357;28;20035;-88
2022/12/09 02:21:20;;;;;;;82.35;27.85;;;;;;;3.65;100.00;100655.03;5006625;28;20116;-89
2022/12/09 02:24:05;;;;;;;83.40;29.75;;;;;;;3.64;100.00;100658.94;4969210;28;20113;-88
2022/12/09 02:26:40;;;;;;;90.22;30.45;;;;;;;3.65;100.00;100648.72;4969607;28;20030;-90
2022/12/09 02:29:24;;;;;;;84.43;30.65;;;;;;;3.65;100.00;100646.75;4998401;28;20065;-89
2022/12/09 02:32:19;;;;;;;79.20;29.17;;;;;;;3.63;100.00;100639.94;5008233;28;20536;-88
2022/12/09 02:34:54;;;;;;;79.40;28.67;;;;;;;3.58;100.00;100645.66;5021658;28;20026;-89
2022/12/09 02:38:02;;;;;;;83.68;28.00;;;;;;;3.59;100.00;100638.97;5007445;28;20022;-89
2022/12/09 02:40:39;;;;;;;83.78;28.67;;;;;;;3.60;100.00;100640.59;4989296;28;20132;-89
2022/12/09 02:43:06;;;;;;;75.93;26.27;;;;;;;3.57;100.00;100638.50;5006429;28;20064;-90
2022/12/09 02:45:34;;;;;;;79.18;28.08;;;;;;;3.57;100.00;100644.84;5021873;28;20022;-88
2022/12/09 02:48:01;;;;;;;85.55;27.83;;;;;;;3.56;100.00;100639.63;5009344;28;20045;-90
2022/12/09 02:50:31;;;;;;;83.53;30.45;;;;;;;3.55;100.00;100638.84;5025242;28;20026;-89
2022/12/09 02:53:00;;;;;;;80.30;28.17;;;;;;;3.51;100.00;100626.00;5025410;28;20395;-88
2022/12/09 02:55:28;;;;;;;78.95;29.40;;;;;;;3.49;100.00;100626.34;5025443;28;20026;-89
2022/12/09 02:57:58;;;;;;;84.93;30.77;;;;;;;3.50;100.00;100630.75;5013403;28;20037;-89
2022/12/09 03:00:26;;;;;;;85.13;29.23;;;;;;;3.42;100.00;100637.13;5025453;28;20042;-89
2022/12/09 03:02:55;;;;;;;78.90;29.85;;;;;;;3.46;100.00;100630.59;5013427;28;20062;-90
2022/12/09 03:05:47;;;;;;;80.30;28.35;;;;;;;3.47;100.00;100637.75;4998731;28;20037;-89
2022/12/09 03:08:20;;;;;;;90.55;27.33;;;;;;;3.52;100.00;100630.38;5025909;28;20021;-89
2022/12/09 03:10:58;;;;;;;83.85;28.30;;;;;;;3.53;100.00;100634.78;5004937;28;22581;-90
2022/12/09 03:13:45;;;;;;;76.45;26.50;;;;;;;3.56;100.00;100636.88;5005962;28;20052;-88
2022/12/09 03:16:40;;;;;;;72.20;26.98;;;;;;;3.54;100.00;100625.31;5017253;28;20498;-90
2022/12/09 03:19:21;;;;;;;85.03;30.13;;;;;;;3.47;100.00;100625.88;4980226;28;20037;-89
2022/12/09 03:21:51;;;;;;;77.85;28.23;;;;;;;3.40;100.00;100622.84;5005793;28;20127;-87
2022/12/09 03:24:54;;;;;;;91.00;29.73;;;;;;;3.40;100.00;100631.13;5001427;28;20496;-89
2022/12/09 03:27:29;;;;;;;93.35;31.48;;;;;;;3.46;100.00;100619.53;5016617;28;20037;-90
2022/12/09 03:29:56;;;;;;;86.20;30.15;;;;;;;3.42;100.00;100623.31;5022789;28;20045;-90
2022/12/09 03:32:25;;;;;;;77.88;27.30;;;;;;;3.37;100.00;100615.19;5023761;28;20026;-89
2022/12/09 03:34:56;;;;;;;81.85;28.45;;;;;;;3.43;100.00;100620.19;5009135;28;20045;-89
2022/12/09 03:37:21;;;;;;;83.65;30.08;;;;;;;3.41;100.00;100622.47;5008640;28;20033;-89
2022/12/09 03:39:48;;;;;;;75.22;28.00;;;;;;;3.42;100.00;100615.81;5021308;28;20048;-89
2022/12/09 03:42:29;;;;;;;80.63;28.92;;;;;;;3.35;100.00;100612.78;5007409;28;20064;-89
2022/12/09 03:45:08;;;;;;;84.25;29.85;;;;;;;3.36;100.00;100613.59;5019805;28;20038;-89
2022/12/09 03:47:34;;;;;;;80.82;28.63;;;;;;;3.29;100.00;100600.28;5022142;28;20033;-89
2022/12/09 03:50:00;;;;;;;79.00;27.88;;;;;;;3.31;100.00;100602.69;5001882;28;20121;-92
2022/12/09 03:52:34;;;;;;;82.47;28.20;;;;;;;3.29;100.00;100608.59;5006739;28;20108;-89
2022/12/09 03:55:27;;;;;;;79.38;28.02;;;;;;;3.28;100.00;100609.72;5004521;28;20037;-90
2022/12/09 03:57:56;;;;;;;80.72;26.67;;;;;;;3.18;100.00;100601.81;5002774;28;20105;-90
2022/12/09 04:00:22;;;;;;;78.97;26.77;;;;;;;3.20;100.00;100603.06;5004030;28;20030;-90
2022/12/09 04:02:47;;;;;;;84.07;29.13;;;;;;;3.13;100.00;100599.25;5007918;28;20532;-90
2022/12/09 04:05:13;;;;;;;76.72;26.42;;;;;;;3.08;100.00;100605.78;5008898;28;20124;-91
2022/12/09 04:07:38;;;;;;;83.70;27.23;;;;;;;3.15;100.00;100608.81;5006231;28;20038;-90
2022/12/09 04:10:05;;;;;;;75.15;28.92;;;;;;;3.14;100.00;100606.38;5007263;28;20144;-89
2022/12/09 04:12:30;;;;;;;89.38;30.33;;;;;;;3.12;100.00;100614.19;5006231;28;20512;-90
2022/12/09 04:14:56;;;;;;;81.10;27.55;;;;;;;3.07;100.00;100606.09;5009491;28;20030;-91
2022/12/09 04:17:21;;;;;;;74.80;30.25;;;;;;;2.97;100.00;100597.06;5013449;28;20084;-90
2022/12/09 04:19:46;;;;;;;77.10;25.98;;;;;;;2.99;100.00;100597.53;5009546;28;20099;-91
2022/12/09 04:22:12;;;;;;;74.18;26.58;;;;;;;3.05;100.00;100601.69;5009044;28;20025;-90
2022/12/09 04:24:38;;;;;;;79.55;26.52;;;;;;;2.95;100.00;100590.22;5007149;28;20041;-88
2022/12/09 04:27:03;;;;;;;74.03;25.02;;;;;;;2.99;100.00;100603.06;5006775;28;20027;-90
2022/12/09 04:29:29;;;;;;;72.00;28.63;;;;;;;2.91;100.00;100603.91;5009721;28;20029;-91
2022/12/09 04:31:57;;;;;;;78.93;26.27;;;;;;;2.99;100.00;100610.53;5024844;28;20022;-91
2022/12/09 04:34:22;;;;;;;74.07;26.15;;;;;;;2.97;100.00;100602.59;5004374;28;20030;-90
2022/12/09 04:36:48;;;;;;;73.35;25.83;;;;;;;3.00;100.00;100601.91;5011791;28;20037;-90
2022/12/09 04:39:13;;;;;;;75.43;24.50;;;;;;;2.98;100.00;100603.38;5005348;28;20668;-91
2022/12/09 04:41:39;;;;;;;81.53;25.00;;;;;;;3.01;100.00;100603.50;5000839;28;20065;-89
2022/12/09 04:44:05;;;;;;;67.07;26.15;;;;;;;2.96;100.00;100595.41;5005956;28;20034;-91
2022/12/09 04:46:30;;;;;;;71.05;24.85;;;;;;;2.91;100.00;100603.91;5012591;28;20030;-89
2022/12/09 04:48:56;;;;;;;78.13;28.38;;;;;;;2.99;100.00;100605.81;5009545;28;20033;-90
2022/12/09 04:51:21;;;;;;;72.93;27.08;;;;;;;2.96;100.00;100595.41;5007324;28;20397;-89
2022/12/09 04:53:46;;;;;;;70.38;27.83;;;;;;;2.87;100.00;100588.31;5010574;28;20121;-90
2022/12/09 04:56:14;;;;;;;82.22;29.27;;;;;;;2.92;100.00;100596.44;5026067;28;20034;-90
2022/12/09 04:58:40;;;;;;;76.68;25.13;;;;;;;2.97;100.00;100591.53;5005922;28;20022;-90
2022/12/09 05:01:08;;;;;;;72.63;26.80;;;;;;;3.01;100.00;100600.75;5009242;28;20101;-91
2022/12/09 05:03:34;;;;;;;75.75;26.40;;;;;;;3.03;100.00;100606.75;5013587;28;20535;-91
2022/12/09 05:06:02;;;;;;;73.57;28.65;;;;;;;2.95;100.00;100604.88;5015622;28;20060;-91
2022/12/09 05:08:28;;;;;;;75.68;28.40;;;;;;;2.99;100.00;100605.00;5008325;28;20786;-90
2022/12/09 05:10:53;;;;;;;72.95;26.17;;;;;;;3.04;100.00;100613.91;5008610;28;20518;-89
2022/12/09 05:13:18;;;;;;;75.00;27.98;;;;;;;2.95;100.00;100604.03;5011320;28;20088;-89
2022/12/09 05:15:44;;;;;;;66.75;27.58;;;;;;;3.03;100.00;100612.28;5010502;28;20045;-90
2022/12/09 05:18:09;;;;;;;75.63;27.65;;;;;;;3.04;100.00;100608.38;5009147;28;20049;-89
2022/12/09 05:20:38;;;;;;;73.28;27.23;;;;;;;2.98;100.00;100604.19;5010371;28;20022;-91
2022/12/09 05:23:03;;;;;;;81.88;28.00;;;;;;;3.05;100.00;100600.91;5023074;28;21984;-91
2022/12/09 05:25:28;;;;;;;69.60;27.20;;;;;;;2.92;100.00;100593.66;5010881;28;20057;-89
2022/12/09 05:27:54;;;;;;;68.38;26.33;;;;;;;2.95;100.00;100599.34;5012498;28;20578;-91
2022/12/09 05:30:19;;;;;;;73.72;24.35;;;;;;;3.01;100.00;100605.47;5013407;28;20077;-91
2022/12/09 05:32:45;;;;;;;66.32;26.67;;;;;;;3.02;100.00;100610.69;5016854;28;20041;-90
2022/12/09 05:35:10;;;;;;;73.65;27.15;;;;;;;2.89;100.00;100592.38;5011916;28;20064;-89
2022/12/09 05:37:35;;;;;;;71.25;26.25;;;;;;;2.97;100.00;100602.59;5010053;28;20025;-92
2022/12/09 05:40:01;;;;;;;77.75;27.40;;;;;;;2.97;100.00;100601.75;5008373;28;20034;-88
2022/12/09 05:42:26;;;;;;;69.85;25.27;;;;;;;2.86;100.00;100593.03;5023475;28;20470;-89
2022/12/09 05:44:53;;;;;;;70.80;26.50;;;;;;;2.93;100.00;100593.34;5005914;28;20030;-90
2022/12/09 05:47:18;;;;;;;77.75;28.80;;;;;;;2.87;100.00;100591.91;5006909;28;20029;-91
2022/12/09 05:49:44;;;;;;;71.63;27.38;;;;;;;2.83;100.00;100580.69;5008627;28;20034;-90
2022/12/09 05:52:12;;;;;;;71.40;26.02;;;;;;;2.91;100.00;100592.84;5005291;28;20101;-89
2022/12/09 05:54:38;;;;;;;81.88;27.65;;;;;;;2.89;100.00;100586.84;5006445;28;20106;-88
2022/12/09 05:57:04;;;;;;;84.90;29.35;;;;;;;2.95;100.00;100599.34;5005853;28;20036;-90
2022/12/09 05:59:29;;;;;;;78.78;30.52;;;;;;;2.94;100.00;100599.66;5009607;28;20022;-91
2022/12/09 06:01:54;;;;;;;79.40;27.33;;;;;;;2.93;100.00;100589.75;4998254;28;20070;-91
2022/12/09 06:04:20;;;;;;;81.28;26.58;;;;;;;3.03;100.00;100595.69;5001190;28;21628;-89
2022/12/09 06:06:46;;;;;;;85.93;31.77;;;;;;;2.86;100.00;100595.78;5017834;28;20038;-93
2022/12/09 06:09:11;;;;;;;87.97;30.05;;;;;;;2.97;100.00;100602.59;5007892;28;20026;-89
2022/12/09 06:11:38;;;;;;;91.50;30.52;;;;;;;2.97;100.00;100596.22;5004672;28;20026;-89
2022/12/09 06:14:06;;;;;;;85.43;29.23;;;;;;;3.05;100.00;100592.59;5000725;28;20037;-89
2022/12/09 06:16:31;;;;;;;84.78;29.73;;;;;;;2.70;100.00;100591.97;5007061;28;20709;-87
2022/12/09 06:18:56;;;;;;;73.05;29.08;;;;;;;2.71;100.00;100582.53;5006912;28;20033;-90
2022/12/09 06:21:22;;;;;;;86.32;29.02;;;;;;;2.81;100.00;100587.69;5002856;28;20037;-89
2022/12/09 06:23:49;;;;;;;96.03;34.97;;;;;;;2.77;100.00;100586.75;5005575;28;20037;-90
2022/12/09 06:26:17;;;;;;;92.93;29.80;;;;;;;2.97;100.00;100590.69;5006691;28;20125;-89
2022/12/09 06:28:43;;;;;;;83.45;29.65;;;;;;;2.92;100.00;100588.94;5016970;28;22113;-90
2022/12/09 06:31:08;;;;;;;90.47;31.25;;;;;;;2.66;100.00;100575.25;5002338;28;20030;-93
2022/12/09 06:33:34;;;;;;;85.40;30.52;;;;;;;2.64;100.00;100578.34;5008353;28;20033;-90
2022/12/09 06:36:00;;;;;;;87.13;32.00;;;;;;;2.75;100.00;100589.03;5016892;28;20042;-88
2022/12/09 06:38:26;;;;;;;87.85;28.63;;;;;;;2.77;100.00;100587.53;5006827;28;20428;-91
2022/12/09 06:40:51;;;;;;;86.22;27.55;;;;;;;2.80;100.00;100580.53;5014121;28;20217;-90
2022/12/09 06:43:17;;;;;;;84.32;29.65;;;;;;;2.65;100.00;100585.47;5010313;28;20038;-89
2022/12/09 06:45:42;;;;;;;92.55;30.25;;;;;;;2.78;100.00;100589.19;5011998;28;20490;-91
2022/12/09 06:48:07;;;;;;;92.82;35.20;;;;;;;2.79;100.00;100592.75;5013694;28;20032;-90
2022/12/09 06:50:33;;;;;;;81.90;29.23;;;;;;;2.77;100.00;100583.97;5009145;28;20025;-92
2022/12/09 06:52:58;;;;;;;87.30;32.83;;;;;;;2.78;100.00;100588.34;5018681;28;20029;-91
2022/12/09 06:55:23;;;;;;;88.68;30.85;;;;;;;2.77;100.00;100589.50;5003150;28;20030;-91
2022/12/09 06:57:49;;;;;;;85.13;30.63;;;;;;;2.73;100.00;100602.38;5008812;28;20076;-91
2022/12/09 07:00:15;;;;;;;86.07;30.00;;;;;;;2.76;100.00;100587.88;5012382;28;20024;-89
2022/12/09 07:02:40;;;;;;;84.45;30.88;;;;;;;2.70;100.00;100587.25;5008990;28;20042;-90
2022/12/09 07:05:05;;;;;;;82.75;28.95;;;;;;;2.65;100.00;100591.00;5009352;28;20569;-90
2022/12/09 07:07:31;;;;;;;93.82;31.60;;;;;;;2.69;100.00;100601.41;5014493;28;20412;-91
2022/12/09 07:09:57;;;;;;;88.82;29.20;;;;;;;3.08;100.00;100600.25;5006131;28;20484;-76
2022/12/09 07:12:22;;;;;;;85.72;29.50;;;;;;;3.26;100.00;100604.50;5033474;23;20448;-83
2022/12/09 07:14:48;;;;;;;93.43;29.92;;;;;;;3.14;100.00;100606.38;4966970;28;20110;-82
2022/12/09 07:17:18;;;;;;;95.55;31.33;;;;;;;2.85;100.00;100608.00;4963995;28;20030;-82
2022/12/09 07:19:44;;;;;;;87.53;33.05;;;;;;;2.70;100.00;100606.59;4966462;28;20391;-82
2022/12/09 07:22:10;;;;;;;93.20;33.08;;;;;;;2.59;100.00;100608.94;4967397;28;20031;-84
2022/12/09 07:24:36;;;;;;;102.20;35.47;;;;;;;2.62;100.00;100612.97;4966079;28;20385;-82
2022/12/09 07:27:03;;;;;;;94.20;30.45;;;;;;;2.56;100.00;100614.28;4965854;28;20098;-82
2022/12/09 07:29:30;;;;;;;93.47;32.30;;;;;;;2.55;100.00;100607.13;4980168;28;20061;-81
2022/12/09 07:31:56;;;;;;;85.53;28.88;;;;;;;2.48;100.00;100612.38;4965851;28;20127;-82
2022/12/09 07:34:21;;;;;;;85.60;27.98;;;;;;;2.40;100.00;100611.25;4965506;28;20546;-82
2022/12/09 07:36:47;;;;;;;90.80;27.33;;;;;;;2.11;100.00;100609.19;4965054;28;20487;-82
2022/12/09 07:39:14;;;;;;;84.82;29.52;;;;;;;2.24;100.00;100609.00;4981073;28;20050;-82
2022/12/09 07:41:40;;;;;;;94.55;30.23;;;;;;;2.48;100.00;100607.66;4946347;28;20027;-83
2022/12/09 07:44:05;;;;;;;75.80;27.17;;;;;;;2.74;100.00;100604.81;4943216;28;20674;-81
2022/12/09 07:46:31;;;;;;;84.00;29.58;;;;;;;2.59;100.00;100613.63;4949052;28;20031;-82
2022/12/09 07:48:56;;;;;;;79.18;28.40;;;;;;;2.44;100.00;100613.00;4953839;28;20486;-82
2022/12/09 07:51:23;;;;;;;79.40;26.95;;;;;;;2.47;100.00;100613.50;4972652;28;20379;-81
2022/12/09 07:53:48;;;;;;;86.65;28.13;;;;;;;2.33;100.00;100622.00;4954793;28;20038;-81
2022/12/09 07:56:16;;;;;;;81.57;28.42;;;;;;;2.42;100.00;100614.50;4960461;28;20570;-82
2022/12/09 07:58:42;;;;;;;90.88;31.58;;;;;;;2.35;100.00;100617.75;4942731;28;20134;-82
2022/12/09 08:01:10;;;;;;;85.10;27.83;;;;;;;2.43;100.00;100622.44;4948779;28;20042;-82
2022/12/09 08:03:36;;;;;;;95.00;28.40;;;;;;;2.45;100.00;100619.38;4946354;28;20031;-81
2022/12/09 08:06:01;;;;;;;84.35;30.52;;;;;;;2.45;100.00;100613.84;4944741;28;20122;-81
2022/12/09 08:08:27;;;;;;;75.85;28.00;;;;;;;2.44;100.00;100620.50;4944983;28;20047;-81
2022/12/09 08:10:53;;;;;;;82.97;29.17;;;;;;;2.15;100.00;100616.50;4944899;28;20031;-81
2022/12/09 08:13:19;;;;;;;90.03;30.13;;;;;;;2.29;100.00;100623.78;4962962;28;20426;-82
2022/12/09 08:15:45;;;;;;;84.10;27.17;;;;;;;2.34;100.00;100624.44;4967666;28;20037;-81
2022/12/09 08:18:10;;;;;;;72.50;28.67;;;;;;;2.38;100.00;100619.88;4966837;28;20508;-81
2022/12/09 08:20:36;;;;;;;90.97;28.88;;;;;;;2.36;100.00;100626.84;4950682;28;20518;-82
2022/12/09 08:23:02;;;;;;;84.10;29.77;;;;;;;2.23;100.00;100623.97;4972493;28;20546;-81
2022/12/09 08:25:27;;;;;;;71.40;28.23;;;;;;;2.34;100.00;100629.13;4980242;28;20374;-81
2022/12/09 08:27:52;;;;;;;71.93;29.35;;;;;;;2.39;100.00;100631.72;4972700;28;20034;-82
2022/12/09 08:30:18;;;;;;;78.18;29.75;;;;;;;2.42;100.00;100631.06;4964083;28;20045;-82
2022/12/09 08:32:43;;;;;;;86.10;30.52;;;;;;;2.40;100.00;100627.81;4966589;28;20031;-82
2022/12/09 08:35:13;;;;;;;77.30;28.40;;;;;;;2.42;100.00;100620.00;4967582;28;20065;-82
2022/12/09 08:37:40;;;;;;;76.38;28.10;;;;;;;2.40;100.00;100627.81;4951354;28;20564;-82
2022/12/09 08:40:07;;;;;;;77.47;26.83;;;;;;;2.33;100.00;100622.00;4953067;28;20070;-81
2022/12/09 08:42:32;;;;;;;77.40;28.45;;;;;;;2.36;100.00;100626.84;4961274;28;20069;-82
2022/12/09 08:44:58;;;;;;;86.55;27.92;;;;;;;2.37;100.00;100628.47;4967809;28;20055;-82
2022/12/09 08:47:23;;;;;;;85.03;28.15;;;;;;;2.38;100.00;100624.56;4965325;28;20474;-82
2022/12/09 08:49:48;;;;;;;79.50;27.98;;;;;;;2.37;100.00;100625.72;4963178;28;20031;-82
2022/12/09 08:52:14;;;;;;;84.22;31.15;;;;;;;2.33;100.00;100627.53;4961740;28;20031;-82
2022/12/09 08:54:39;;;;;;;75.10;26.70;;;;;;;2.28;100.00;100619.38;4955628;28;20113;-82
2022/12/09 08:57:05;;;;;;;78.00;29.05;;;;;;;2.36;100.00;100621.31;4952263;28;20165;-82
2022/12/09 08:59:30;;;;;;;84.35;28.33;;;;;;;2.42;100.00;100620.00;4976967;28;20463;-81
2022/12/09 09:01:55;;;;;;;76.57;26.80;;;;;;;2.44;100.00;100620.50;4950642;28;20080;-81
2022/12/09 09:04:21;;;;;;;75.20;28.30;;;;;;;2.48;100.00;100626.19;4959562;28;20479;-81
2022/12/09 09:06:48;;;;;;;79.07;27.95;;;;;;;2.42;100.00;100622.78;4964659;28;20485;-81
2022/12/09 09:09:14;;;;;;;74.65;27.77;;;;;;;2.43;100.00;100621.66;4951031;28;20034;-81
2022/12/09 09:11:40;;;;;;;78.63;26.33;;;;;;;2.46;100.00;100623.75;4946480;28;20039;-81
2022/12/09 09:14:08;;;;;;;81.53;28.40;;;;;;;2.49;100.00;100625.03;4946890;28;20042;-81
2022/12/09 09:16:34;;;;;;;80.00;30.80;;;;;;;2.47;100.00;100628.13;4968508;28;20142;-81
2022/12/09 09:19:01;;;;;;;76.32;27.83;;;;;;;2.44;100.00;100626.00;4970767;28;20107;-81
2022/12/09 09:21:27;;;;;;;88.43;30.33;;;;;;;2.46;100.00;100636.75;4969196;28;20146;-81
2022/12/09 09:23:53;;;;;;;75.85;29.58;;;;;;;2.51;100.00;100628.28;4965218;28;20488;-81
2022/12/09 09:26:22;;;;;;;76.88;27.90;;;;;;;2.48;100.00;100628.94;4966017;28;21051;-81
2022/12/09 09:28:48;;;;;;;73.22;27.33;;;;;;;2.41;100.00;100623.94;4961679;28;20039;-82
2022/12/09 09:31:17;;;;;;;66.78;24.40;;;;;;;2.43;100.00;100627.19;4964598;28;20027;-82
2022/12/09 09:33:43;;;;;;;70.88;26.58;;;;;;;2.47;100.00;100624.53;4969348;28;20046;-82
2022/12/09 09:36:13;;;;;;;83.97;29.02;;;;;;;2.48;100.00;100621.47;4960626;28;20045;-82
2022/12/09 09:38:39;;;;;;;70.68;25.42;;;;;;;2.51;100.00;100625.50;4954674;28;20034;-82
2022/12/09 09:41:37;;;;;;;73.95;26.63;;;;;;;2.59;100.00;100628.28;4967519;28;20031;-81
2022/12/09 09:44:03;;;;;;;71.65;26.33;;;;;;;2.57;100.00;100632.47;4946762;28;20512;-81
2022/12/09 09:46:43;;;;;;;68.18;24.50;;;;;;;2.58;100.00;100626.63;4959377;28;20438;-81
2022/12/09 09:49:18;;;;;;;66.82;25.05;;;;;;;2.59;100.00;100628.28;4974786;28;20058;-81
2022/12/09 09:51:43;;;;;;;69.85;26.08;;;;;;;2.59;100.00;100619.97;4971133;28;20045;-81
2022/12/09 09:54:12;;;;;;;60.67;24.50;;;;;;;2.50;100.00;100633.00;4958317;28;20113;-81
2022/12/09 09:56:47;;;;;;;75.15;26.42;;;;;;;2.43;100.00;100627.19;4966145;28;20685;-81
2022/12/09 09:59:25;;;;;;;64.90;22.48;;;;;;;2.39;100.00;100631.72;4956173;28;20027;-81
2022/12/09 10:02:10;;;;;;;69.72;25.80;;;;;;;2.45;100.00;100630.41;4987592;28;20422;-81
2022/12/09 10:04:51;;;;;;;63.75;22.83;;;;;;;2.42;100.00;100629.13;4969973;28;20069;-80
2022/12/09 10:07:35;;;;;;;62.58;25.40;;;;;;;2.62;100.00;100630.34;4976533;28;20058;-81
2022/12/09 10:10:18;;;;;;;66.88;23.08;;;;;;;2.64;100.00;100630.84;4973741;28;20023;-81
2022/12/09 10:13:19;;;;;;;64.28;22.98;;;;;;;2.31;100.00;100627.84;4984281;28;20069;-81
2022/12/09 10:15:57;;;;;;;58.65;21.38;;;;;;;2.16;100.00;100625.59;4986649;28;20418;-81
2022/12/09 10:18:32;;;;;;;57.50;20.58;;;;;;;2.32;100.00;100631.41;4952273;28;20125;-82
2022/12/09 10:20:58;;;;;;;66.50;23.55;;;;;;;2.30;100.00;100628.16;4962640;28;20027;-81
2022/12/09 10:23:24;;;;;;;59.67;22.75;;;;;;;2.15;100.00;100624.78;4969753;28;20571;-81
2022/12/09 10:25:54;;;;;;;61.17;21.83;;;;;;;2.21;100.00;100619.91;4964441;28;20198;-81
2022/12/09 10:28:22;;;;;;;52.35;19.70;;;;;;;2.50;100.00;100627.47;4968007;28;20559;-81
2022/12/09 10:30:53;;;;;;;61.33;23.27;;;;;;;2.64;100.00;100630.84;4965474;28;20895;-81
2022/12/09 10:33:26;;;;;;;59.88;24.00;;;;;;;2.65;100.00;100629.69;4950344;28;20588;-82
2022/12/09 10:35:51;;;;;;;54.55;21.45;;;;;;;2.55;100.00;100630.06;4965014;28;20077;-81
2022/12/09 10:38:18;;;;;;;62.83;21.67;;;;;;;2.33;100.00;100617.28;4967723;28;20034;-81
2022/12/09 10:40:48;;;;;;;47.00;19.38;;;;;;;2.59;100.00;100619.16;4969106;28;20057;-81
2022/12/09 10:46:09;;;;;;;50.28;19.90;;;;;;;2.71;100.00;100618.47;4965727;28;20041;-81
2022/12/09 10:48:39;;;;;;;57.05;18.90;;;;;;;2.64;100.00;100619.78;4969994;28;20549;-81
2022/12/09 10:51:20;;;;;;;62.40;22.00;;;;;;;2.39;100.00;100620.69;4967323;28;20030;-81
2022/12/09 10:53:56;;;;;;;54.72;20.73;;;;;;;2.55;100.00;100619.03;4948309;28;20034;-81
2022/12/09 10:56:25;;;;;;;65.82;21.10;;;;;;;2.70;100.00;100609.38;4961817;28;20098;-81
2022/12/09 10:59:23;;;;;;;67.72;22.92;;;;;;;2.55;100.00;100613.50;4962684;28;20355;-81
2022/12/09 11:01:55;;;;;;;57.13;19.92;;;;;;;2.68;100.00;100617.19;4958977;28;20042;-81
2022/12/09 11:04:22;;;;;;;57.13;22.65;;;;;;;2.75;100.00;100600.09;4951321;28;20023;-82
2022/12/09 11:06:47;;;;;;;51.88;20.23;;;;;;;2.41;100.00;100613.69;4964445;28;20047;-81
2022/12/09 11:09:30;;;;;;;60.58;22.70;;;;;;;2.46;100.00;100609.94;4965539;28;20125;-82
2022/12/09 11:11:55;;;;;;;;;;;;;;;2.74;100.00;100610.34;4944473;28;20047;-82
2022/12/09 11:14:33;;;;;;;60.72;24.33;;;;;;;2.52;100.00;100614.13;4951667;28;19992;-82
2022/12/09 11:17:14;;;;;;;60.60;23.08;;;;;;;2.29;100.00;100608.03;4946347;28;20035;-82
2022/12/09 11:19:42;;;;;;;58.50;21.55;;;;;;;2.55;100.00;100602.44;4948699;28;20027;-82
2022/12/09 11:22:20;;;;;;;64.70;24.02;;;;;;;2.57;100.00;100600.16;4947221;28;20030;-82